Time;durP1;ratioP1;P1;durP2;ratioP2;P2;SDS_P1;SDS_P2;PMS_P1;PMS_P2;Temp;Humidity;BMP_temperature;BMP_pressure;BME280_temperature;BME280_humidity;BME280_pressure;Samples;Min_cycle;Max_cycle;Signal;HPM_P1;HPM_P2
2021/08/29 00:01:14;;;;;;;1.67;1.25;;;17.20;89.80;;;;;;5061780;28;20170;-61
2021/08/29 00:03:39;;;;;;;1.55;1.17;;;17.20;89.90;;;;;;5047704;28;20154;-61
2021/08/29 00:06:05;;;;;;;1.27;1.17;;;17.20;90.00;;;;;;5042728;28;20330;-61
2021/08/29 00:08:30;;;;;;;2.20;1.45;;;17.10;89.90;;;;;;5050659;28;20048;-61
2021/08/29 00:10:57;;;;;;;1.88;1.42;;;17.10;89.90;;;;;;5048258;28;20037;-61
2021/08/29 00:13:22;;;;;;;1.95;1.42;;;17.20;90.00;;;;;;5061070;28;20139;-61
2021/08/29 00:15:48;;;;;;;1.65;1.40;;;17.10;90.00;;;;;;5078784;28;20519;-61
2021/08/29 00:18:13;;;;;;;1.60;1.50;;;17.20;90.00;;;;;;5050774;28;20047;-61
2021/08/29 00:20:39;;;;;;;2.47;1.30;;;17.10;90.00;;;;;;5046490;28;20033;-61
2021/08/29 00:23:04;;;;;;;1.70;1.52;;;17.10;90.00;;;;;;5042424;28;20025;-61
2021/08/29 00:25:30;;;;;;;2.65;1.73;;;17.10;90.10;;;;;;5044384;28;20708;-60
2021/08/29 00:27:55;;;;;;;1.92;1.65;;;17.10;90.10;;;;;;5041437;28;20492;-61
2021/08/29 00:30:21;;;;;;;1.88;1.55;;;17.10;90.10;;;;;;5068596;28;20168;-61
2021/08/29 00:32:46;;;;;;;2.05;1.85;;;17.10;90.10;;;;;;5062109;28;20370;-61
2021/08/29 00:35:12;;;;;;;1.88;1.60;;;17.10;90.20;;;;;;5048147;28;20052;-61
2021/08/29 00:37:37;;;;;;;2.60;1.52;;;17.10;90.20;;;;;;5067107;28;20024;-61
2021/08/29 00:40:04;;;;;;;2.45;1.50;;;17.10;90.20;;;;;;5043249;28;20020;-61
2021/08/29 00:42:30;;;;;;;2.17;1.77;;;17.10;90.20;;;;;;5051217;28;20496;-61
2021/08/29 00:44:55;;;;;;;2.75;1.65;;;17.10;90.20;;;;;;5055027;28;20043;-61
2021/08/29 00:47:21;;;;;;;2.10;1.90;;;17.10;90.30;;;;;;5065186;28;20199;-60
2021/08/29 00:49:46;;;;;;;2.65;1.90;;;17.00;90.30;;;;;;5046303;28;21187;-61
2021/08/29 00:52:12;;;;;;;3.35;1.98;;;17.00;90.30;;;;;;5046890;28;20112;-61
2021/08/29 00:54:37;;;;;;;2.38;1.63;;;17.00;90.40;;;;;;5055506;28;20119;-61
2021/08/29 00:57:07;;;;;;;3.55;2.15;;;17.00;90.40;;;;;;5055615;28;20070;-61
2021/08/29 00:59:33;;;;;;;2.20;1.73;;;17.10;90.40;;;;;;5059435;28;20021;-61
2021/08/29 01:02:01;;;;;;;1.77;1.67;;;17.00;90.40;;;;;;5047432;28;20036;-61
2021/08/29 01:04:50;;;;;;;3.60;2.10;;;17.00;90.40;;;;;;5019584;28;20101;-61
2021/08/29 01:07:22;;;;;;;2.53;1.75;;;17.00;90.40;;;;;;5018650;28;20063;-61
2021/08/29 01:09:51;;;;;;;2.30;1.80;;;17.00;90.40;;;;;;5035541;28;20123;-61
2021/08/29 01:12:16;;;;;;;2.25;2.05;;;17.00;90.50;;;;;;5051466;28;20108;-61
2021/08/29 01:14:42;;;;;;;2.38;2.03;;;17.00;90.50;;;;;;5047455;28;20108;-61
2021/08/29 01:17:07;;;;;;;3.20;2.10;;;17.00;90.50;;;;;;5049128;28;20045;-61
2021/08/29 01:19:45;;;;;;;2.53;2.10;;;16.90;90.40;;;;;;5014972;28;20094;-61
2021/08/29 01:22:11;;;;;;;2.42;2.20;;;17.00;90.50;;;;;;5018315;28;20032;-61
2021/08/29 01:24:36;;;;;;;3.97;1.95;;;17.00;90.50;;;;;;5048019;28;20035;-61
2021/08/29 01:27:14;;;;;;;3.00;2.17;;;17.00;90.50;;;;;;5048055;28;20111;-61
2021/08/29 01:29:40;;;;;;;2.40;1.90;;;16.90;90.50;;;;;;5053529;28;20034;-61
2021/08/29 01:32:06;;;;;;;2.65;2.22;;;16.90;90.50;;;;;;5038310;28;20489;-61
2021/08/29 01:34:32;;;;;;;5.63;2.53;;;16.90;90.50;;;;;;5033638;28;20020;-61
2021/08/29 01:36:57;;;;;;;3.05;2.03;;;16.90;90.50;;;;;;5028038;28;20326;-61
2021/08/29 01:39:23;;;;;;;3.05;2.05;;;17.00;90.50;;;;;;5034432;28;20124;-61
2021/08/29 01:41:49;;;;;;;2.22;2.03;;;17.00;90.50;;;;;;5074342;28;20118;-61
2021/08/29 01:44:16;;;;;;;2.92;2.50;;;17.00;90.50;;;;;;5021526;28;20036;-61
2021/08/29 01:46:41;;;;;;;2.63;2.10;;;17.00;90.50;;;;;;5047036;28;20025;-61
2021/08/29 01:49:08;;;;;;;3.20;2.33;;;16.90;90.50;;;;;;5044746;28;20040;-61
2021/08/29 01:51:33;;;;;;;2.22;2.00;;;16.90;90.50;;;;;;5033527;28;20033;-61
2021/08/29 01:53:59;;;;;;;2.30;2.10;;;16.90;90.60;;;;;;5033904;28;20451;-61
2021/08/29 01:56:25;;;;;;;2.10;1.90;;;16.90;90.60;;;;;;5052693;28;20115;-61
2021/08/29 01:58:50;;;;;;;2.67;2.28;;;16.90;90.50;;;;;;5048870;28;20384;-61
2021/08/29 02:01:16;;;;;;;9.80;2.22;;;16.90;90.50;;;;;;5070408;28;20601;-61
2021/08/29 02:03:42;;;;;;;3.00;2.17;;;16.90;90.50;;;;;;5061298;28;20051;-61
2021/08/29 02:06:18;;;;;;;2.40;2.20;;;16.90;90.50;;;;;;5045190;28;20425;-61
2021/08/29 02:08:54;;;;;;;3.17;2.53;;;16.90;90.50;;;;;;5011317;28;20041;-62
2021/08/29 02:11:21;;;;;;;2.38;2.17;;;16.90;90.60;;;;;;5015554;28;20047;-61
2021/08/29 02:13:46;;;;;;;4.30;2.78;;;16.90;90.60;;;;;;5042528;28;20488;-61
2021/08/29 02:16:14;;;;;;;3.17;2.10;;;16.90;90.50;;;;;;5033292;28;20030;-61
2021/08/29 02:18:42;;;;;;;3.75;2.70;;;16.90;90.60;;;;;;5043925;28;20075;-61
2021/08/29 02:21:07;;;;;;;3.33;2.67;;;16.90;90.60;;;;;;5047170;28;20362;-61
2021/08/29 02:23:33;;;;;;;3.95;2.70;;;16.80;90.60;;;;;;5036502;28;20028;-61
2021/08/29 02:25:59;;;;;;;3.15;2.80;;;16.90;90.60;;;;;;5048921;28;20029;-61
2021/08/29 02:28:24;;;;;;;2.90;2.60;;;16.90;90.60;;;;;;5041845;28;20037;-61
2021/08/29 02:30:50;;;;;;;2.92;2.63;;;16.80;90.60;;;;;;5031458;28;20119;-61
2021/08/29 02:33:16;;;;;;;4.38;3.03;;;16.90;90.60;;;;;;5022905;28;20515;-61
2021/08/29 02:35:41;;;;;;;2.80;2.50;;;16.90;90.50;;;;;;5044483;28;20503;-61
2021/08/29 02:38:07;;;;;;;3.03;2.72;;;16.90;90.50;;;;;;5052900;28;20479;-61
2021/08/29 02:40:40;;;;;;;3.28;2.70;;;16.80;90.50;;;;;;5053995;28;20043;-61
2021/08/29 02:43:07;;;;;;;2.60;2.38;;;16.80;90.60;;;;;;5027385;28;20077;-61
2021/08/29 02:45:33;;;;;;;3.53;3.22;;;16.80;90.60;;;;;;5027801;28;20496;-61
2021/08/29 02:47:59;;;;;;;3.00;2.70;;;16.80;90.60;;;;;;5040071;28;20158;-61
2021/08/29 02:50:25;;;;;;;3.97;3.20;;;16.80;90.70;;;;;;5029475;28;20115;-61
2021/08/29 02:52:50;;;;;;;4.13;3.10;;;16.80;90.70;;;;;;5031816;28;20052;-61
2021/08/29 02:55:16;;;;;;;3.67;3.22;;;16.80;90.80;;;;;;5049625;28;20103;-61
2021/08/29 02:57:44;;;;;;;3.72;3.33;;;16.80;90.80;;;;;;5016552;28;20436;-61
2021/08/29 03:00:11;;;;;;;3.28;3.00;;;16.80;90.80;;;;;;5029213;28;20538;-61
2021/08/29 03:02:37;;;;;;;4.05;3.40;;;16.80;90.80;;;;;;5065622;28;20032;-61
2021/08/29 03:05:03;;;;;;;5.90;3.08;;;16.80;90.90;;;;;;5052039;28;20035;-61
2021/08/29 03:07:28;;;;;;;4.13;3.50;;;16.70;90.80;;;;;;5063268;28;20036;-61
2021/08/29 03:09:54;;;;;;;3.20;2.90;;;16.80;90.90;;;;;;5042443;28;20051;-61
2021/08/29 03:12:20;;;;;;;4.80;3.40;;;16.80;90.90;;;;;;5040496;28;20039;-61
2021/08/29 03:14:46;;;;;;;3.95;3.20;;;16.70;90.80;;;;;;5036265;28;20024;-61
2021/08/29 03:17:11;;;;;;;3.75;3.38;;;16.70;90.90;;;;;;5064044;28;20048;-61
2021/08/29 03:19:38;;;;;;;3.88;3.30;;;16.70;90.90;;;;;;5045952;28;20356;-61
2021/08/29 03:22:04;;;;;;;4.03;3.20;;;16.80;91.20;;;;;;5032210;28;20093;-61
2021/08/29 03:24:30;;;;;;;6.72;3.40;;;16.70;90.90;;;;;;5044937;28;20515;-61
2021/08/29 03:26:55;;;;;;;3.53;3.22;;;16.70;90.90;;;;;;5060881;28;20534;-61
2021/08/29 03:29:21;;;;;;;4.05;3.47;;;16.80;90.90;;;;;;5026614;28;20074;-61
2021/08/29 03:31:46;;;;;;;4.10;3.70;;;16.70;90.90;;;;;;5061730;28;20280;-61
2021/08/29 03:34:13;;;;;;;5.13;3.53;;;16.70;90.90;;;;;;5063550;28;20116;-61
2021/08/29 03:36:41;;;;;;;3.90;3.50;;;16.70;91.00;;;;;;5069756;28;20028;-61
2021/08/29 03:39:06;;;;;;;3.60;3.22;;;16.70;91.00;;;;;;5043538;28;20054;-61
2021/08/29 03:41:32;;;;;;;3.70;3.22;;;16.70;91.00;;;;;;5059326;28;20028;-61
2021/08/29 03:43:57;;;;;;;4.38;3.70;;;16.70;91.00;;;;;;5042840;28;20033;-61
2021/08/29 03:46:23;;;;;;;14.98;3.33;;;16.70;91.00;;;;;;5042752;28;20020;-62
2021/08/29 03:48:49;;;;;;;3.88;3.45;;;16.70;91.00;;;;;;5071140;28;20131;-61
2021/08/29 03:51:15;;;;;;;4.13;3.55;;;16.70;91.00;;;;;;5069158;28;20458;-61
2021/08/29 03:53:41;;;;;;;4.90;3.40;;;16.70;91.10;;;;;;5047576;28;20039;-61
2021/08/29 03:56:07;;;;;;;4.32;3.88;;;16.70;91.10;;;;;;5052565;28;20020;-61
2021/08/29 03:58:34;;;;;;;4.05;3.50;;;16.70;91.10;;;;;;5042948;28;20028;-61
2021/08/29 04:00:59;;;;;;;4.93;3.90;;;16.60;91.10;;;;;;5029748;28;20041;-61
2021/08/29 04:03:25;;;;;;;4.78;3.75;;;16.60;91.10;;;;;;5067403;28;20423;-61
2021/08/29 04:05:51;;;;;;;4.75;4.22;;;16.60;91.10;;;;;;5050809;28;20033;-61
2021/08/29 04:08:17;;;;;;;4.55;4.05;;;16.60;91.00;;;;;;5031724;28;20025;-61
2021/08/29 04:10:43;;;;;;;5.05;3.85;;;16.60;91.00;;;;;;5035448;28;20112;-61
2021/08/29 04:13:09;;;;;;;4.68;3.50;;;16.60;91.00;;;;;;5044253;28;20475;-61
2021/08/29 04:15:34;;;;;;;4.75;3.63;;;16.60;91.00;;;;;;5046567;28;20028;-61
2021/08/29 04:18:00;;;;;;;4.63;3.85;;;16.60;91.10;;;;;;5042089;28;20106;-61
2021/08/29 04:20:25;;;;;;;3.97;3.60;;;16.60;91.00;;;;;;5033030;28;20276;-61
2021/08/29 04:22:51;;;;;;;4.60;3.80;;;16.60;91.10;;;;;;5052454;28;20433;-61
2021/08/29 04:25:17;;;;;;;4.13;3.72;;;16.60;91.00;;;;;;5050132;28;20048;-61
2021/08/29 04:27:43;;;;;;;4.90;3.75;;;16.60;91.00;;;;;;5031614;28;20028;-61
2021/08/29 04:30:09;;;;;;;4.10;3.55;;;16.60;91.00;;;;;;5052594;28;20452;-61
2021/08/29 04:32:34;;;;;;;5.43;4.10;;;16.60;91.00;;;;;;5065529;28;20054;-60
2021/08/29 04:35:00;;;;;;;4.03;3.63;;;16.60;91.00;;;;;;5053393;28;20054;-62
2021/08/29 04:37:25;;;;;;;3.60;3.30;;;16.60;91.00;;;;;;5061664;28;20425;-61
2021/08/29 04:39:51;;;;;;;5.60;4.00;;;16.60;91.20;;;;;;5070412;28;20043;-61
2021/08/29 04:42:16;;;;;;;3.72;3.40;;;16.60;91.10;;;;;;5028319;28;20070;-61
2021/08/29 04:44:42;;;;;;;5.35;3.75;;;16.60;91.10;;;;;;5069440;28;20428;-61
2021/08/29 04:47:08;;;;;;;5.13;3.97;;;16.60;91.10;;;;;;5069893;28;20028;-61
2021/08/29 04:49:33;;;;;;;4.30;3.85;;;16.60;91.20;;;;;;5068724;28;20040;-61
2021/08/29 04:51:59;;;;;;;6.07;4.30;;;16.60;91.20;;;;;;5032251;28;20106;-61
2021/08/29 04:54:24;;;;;;;8.68;3.90;;;16.60;91.20;;;;;;5032073;28;20119;-61
2021/08/29 04:56:50;;;;;;;5.90;4.15;;;16.60;91.20;;;;;;5068356;28;20040;-61
2021/08/29 04:59:15;;;;;;;17.75;4.72;;;16.60;91.20;;;;;;5038576;28;20028;-61
2021/08/29 05:01:41;;;;;;;6.38;4.22;;;16.60;91.40;;;;;;5047848;28;20025;-61
2021/08/29 05:04:06;;;;;;;7.05;4.03;;;16.60;91.10;;;;;;5052612;28;20031;-61
2021/08/29 05:06:32;;;;;;;5.18;3.90;;;16.60;91.10;;;;;;5069934;28;20020;-61
2021/08/29 05:08:57;;;;;;;9.27;4.78;;;16.60;91.10;;;;;;5045953;28;20024;-61
2021/08/29 05:11:23;;;;;;;9.60;4.47;;;16.60;91.20;;;;;;5044071;28;20253;-61
2021/08/29 05:13:49;;;;;;;11.40;4.40;;;16.60;91.10;;;;;;5053365;28;20028;-61
2021/08/29 05:16:14;;;;;;;10.68;5.18;;;16.60;91.10;;;;;;5036678;28;20037;-61
2021/08/29 05:18:40;;;;;;;9.02;5.00;;;16.60;91.10;;;;;;5038536;28;20491;-61
2021/08/29 05:21:05;;;;;;;75.55;5.30;;;16.70;91.20;;;;;;5077644;28;20502;-61
2021/08/29 05:23:31;;;;;;;10.52;4.28;;;16.70;91.10;;;;;;5071087;28;20020;-61
2021/08/29 05:25:56;;;;;;;11.30;4.80;;;16.70;91.00;;;;;;5047553;28;20478;-61
2021/08/29 05:28:22;;;;;;;11.48;4.80;;;16.70;91.00;;;;;;5048302;28;20058;-61
2021/08/29 05:30:48;;;;;;;10.07;4.50;;;16.70;91.00;;;;;;5069863;28;20412;-61
2021/08/29 05:33:13;;;;;;;11.82;4.95;;;16.70;91.10;;;;;;5066320;28;20031;-61
2021/08/29 05:35:39;;;;;;;7.88;4.53;;;16.70;91.40;;;;;;5073599;28;20091;-61
2021/08/29 05:38:04;;;;;;;6.15;4.55;;;16.70;91.20;;;;;;5041535;28;20041;-61
2021/08/29 05:40:30;;;;;;;11.70;4.93;;;16.70;91.30;;;;;;5044894;28;20051;-61
2021/08/29 05:42:55;;;;;;;10.27;4.60;;;16.70;91.30;;;;;;5047024;28;20101;-61
2021/08/29 05:45:21;;;;;;;10.27;4.60;;;16.70;91.30;;;;;;5068991;28;20048;-61
2021/08/29 05:47:46;;;;;;;10.40;5.15;;;16.80;91.70;;;;;;5063383;28;20051;-61
2021/08/29 05:50:12;;;;;;;12.48;4.80;;;16.80;91.70;;;;;;5063493;28;20518;-61
2021/08/29 05:52:37;;;;;;;14.45;4.75;;;16.70;91.70;;;;;;5046334;28;20487;-61
2021/08/29 05:55:03;;;;;;;8.20;4.57;;;16.70;91.60;;;;;;5033638;28;20094;-61
2021/08/29 05:57:28;;;;;;;9.40;4.03;;;16.70;91.40;;;;;;5066151;28;20025;-61
2021/08/29 05:59:54;;;;;;;7.55;4.15;;;16.70;91.30;;;;;;5065611;28;20496;-61
2021/08/29 06:02:19;;;;;;;8.23;3.97;;;16.80;91.30;;;;;;5065762;28;20036;-61
2021/08/29 06:04:45;;;;;;;9.57;4.68;;;16.70;91.30;;;;;;5063894;28;20024;-60
2021/08/29 06:07:10;;;;;;;11.05;4.40;;;16.70;91.30;;;;;;5044506;28;20054;-61
2021/08/29 06:09:36;;;;;;;7.78;4.30;;;16.80;91.30;;;;;;5067238;28;20036;-61
2021/08/29 06:12:02;;;;;;;7.15;3.92;;;16.80;91.30;;;;;;5062564;28;20048;-61
2021/08/29 06:14:27;;;;;;;5.60;3.90;;;16.80;91.30;;;;;;5046756;28;20028;-62
2021/08/29 06:16:53;;;;;;;9.95;4.45;;;16.80;91.20;;;;;;5032573;28;20044;-61
2021/08/29 06:19:18;;;;;;;10.38;4.30;;;16.80;91.30;;;;;;5049433;28;20219;-61
2021/08/29 06:21:44;;;;;;;9.90;4.97;;;16.90;91.30;;;;;;5030656;28;20021;-61
2021/08/29 06:24:09;;;;;;;10.20;4.88;;;16.80;91.40;;;;;;5065369;28;20135;-61
2021/08/29 06:26:35;;;;;;;15.88;4.97;;;16.80;91.30;;;;;;5014003;28;20457;-61
2021/08/29 06:29:01;;;;;;;14.65;5.10;;;16.90;91.30;;;;;;5033393;28;20098;-61
2021/08/29 06:31:26;;;;;;;11.95;5.20;;;16.90;91.30;;;;;;5064119;28;20583;-61
2021/08/29 06:33:52;;;;;;;7.78;4.65;;;16.80;91.20;;;;;;5053565;28;20037;-61
2021/08/29 06:36:17;;;;;;;8.43;4.30;;;16.80;91.20;;;;;;5046897;28;20040;-61
2021/08/29 06:38:43;;;;;;;7.90;4.30;;;16.90;91.10;;;;;;5040741;28;20055;-62
2021/08/29 06:41:08;;;;;;;12.02;5.38;;;17.00;91.10;;;;;;5053050;28;20024;-61
2021/08/29 06:43:34;;;;;;;9.10;4.78;;;16.90;91.20;;;;;;5066585;28;20664;-61
2021/08/29 06:45:59;;;;;;;8.52;4.78;;;17.10;91.50;;;;;;5058955;28;20048;-62
2021/08/29 06:48:25;;;;;;;9.77;4.78;;;16.90;91.30;;;;;;5063986;28;20485;-61
2021/08/29 06:50:50;;;;;;;13.85;4.40;;;16.90;91.40;;;;;;5065489;28;20043;-61
2021/08/29 06:53:16;;;;;;;16.58;5.38;;;17.00;91.60;;;;;;5068454;28;20525;-62
2021/08/29 06:55:41;;;;;;;14.48;4.82;;;16.90;91.40;;;;;;5047506;28;20530;-61
2021/08/29 06:58:07;;;;;;;12.75;5.38;;;16.90;91.40;;;;;;5062381;28;20744;-61
2021/08/29 07:00:33;;;;;;;13.05;5.15;;;16.90;91.70;;;;;;5067722;28;20081;-61
2021/08/29 07:02:58;;;;;;;10.75;4.85;;;17.00;92.00;;;;;;5034676;28;20122;-61
2021/08/29 07:05:25;;;;;;;12.65;4.65;;;17.00;91.80;;;;;;5041035;28;20355;-61
2021/08/29 07:07:50;;;;;;;8.88;4.70;;;17.00;91.80;;;;;;5062585;28;20040;-61
2021/08/29 07:10:16;;;;;;;11.77;5.32;;;17.00;91.70;;;;;;5059114;28;20020;-61
2021/08/29 07:12:41;;;;;;;6.13;5.07;;;17.00;92.00;;;;;;5038738;28;20040;-61
2021/08/29 07:15:07;;;;;;;9.85;5.10;;;17.00;91.90;;;;;;5064467;28;20086;-61
2021/08/29 07:17:33;;;;;;;7.47;5.38;;;17.00;92.00;;;;;;5060763;28;20044;-61
2021/08/29 07:19:58;;;;;;;10.52;5.10;;;17.00;92.10;;;;;;5024694;28;20105;-61
2021/08/29 07:22:24;;;;;;;7.15;4.32;;;17.00;91.80;;;;;;5055857;28;20066;-61
2021/08/29 07:24:49;;;;;;;9.27;4.00;;;17.00;91.70;;;;;;5064753;28;20127;-61
2021/08/29 07:27:15;;;;;;;9.60;4.38;;;17.00;91.60;;;;;;5061157;28;20020;-61
2021/08/29 07:29:40;;;;;;;7.10;4.32;;;17.00;91.50;;;;;;5064162;28;20777;-61
2021/08/29 07:32:06;;;;;;;13.90;4.80;;;17.00;91.50;;;;;;5061911;28;20024;-61
2021/08/29 07:34:31;;;;;;;11.60;4.78;;;17.00;91.60;;;;;;5062440;28;20107;-61
2021/08/29 07:36:57;;;;;;;12.05;4.93;;;17.00;91.70;;;;;;5023676;28;20036;-61
2021/08/29 07:39:23;;;;;;;8.07;4.80;;;17.10;91.60;;;;;;5060701;28;20128;-61
2021/08/29 07:41:48;;;;;;;14.00;4.65;;;17.10;91.50;;;;;;5068560;28;20051;-61
2021/08/29 07:44:14;;;;;;;16.80;5.53;;;17.10;91.60;;;;;;5049741;28;20040;-61
2021/08/29 07:46:39;;;;;;;18.48;5.25;;;17.10;91.60;;;;;;5062222;28;20037;-61
2021/08/29 07:49:05;;;;;;;23.30;6.35;;;17.10;91.50;;;;;;5060828;28;20043;-61
2021/08/29 07:51:30;;;;;;;11.52;4.95;;;17.10;91.90;;;;;;5062866;28;20051;-61
2021/08/29 07:53:56;;;;;;;19.42;6.13;;;17.10;91.70;;;;;;5046046;28;20104;-61
2021/08/29 07:56:21;;;;;;;27.58;6.53;;;17.10;91.70;;;;;;5059951;28;20032;-61
2021/08/29 07:58:47;;;;;;;38.53;7.72;;;17.10;91.70;;;;;;5038855;28;20056;-61
2021/08/29 08:01:12;;;;;;;34.53;6.30;;;17.20;91.90;;;;;;5062876;28;20376;-61
2021/08/29 08:03:38;;;;;;;18.55;5.72;;;17.10;91.70;;;;;;5061611;28;20787;-61
2021/08/29 08:06:04;;;;;;;32.35;6.45;;;17.10;91.80;;;;;;5061901;28;20508;-61
2021/08/29 08:08:30;;;;;;;31.27;6.72;;;17.10;91.90;;;;;;5024641;28;20033;-60
2021/08/29 08:10:56;;;;;;;35.78;7.93;;;17.10;92.00;;;;;;5065918;28;20526;-62
2021/08/29 08:13:21;;;;;;;27.92;6.93;;;17.10;92.00;;;;;;5048669;28;20467;-61
2021/08/29 08:15:47;;;;;;;25.10;7.00;;;17.10;92.10;;;;;;5061198;28;20037;-61
2021/08/29 08:18:12;;;;;;;24.00;6.72;;;17.10;92.10;;;;;;5066451;28;20056;-61
2021/08/29 08:20:38;;;;;;;41.88;8.32;;;17.10;92.00;;;;;;5063564;28;20029;-61
2021/08/29 08:23:03;;;;;;;52.20;8.80;;;17.10;92.00;;;;;;5063875;28;20123;-61
2021/08/29 08:25:29;;;;;;;36.30;7.28;;;17.10;91.90;;;;;;5046863;28;20229;-63
2021/08/29 08:27:54;;;;;;;44.92;7.82;;;17.10;91.90;;;;;;5046972;28;20492;-62
2021/08/29 08:30:20;;;;;;;31.42;6.57;;;17.10;91.80;;;;;;5056790;28;20079;-61
2021/08/29 08:32:45;;;;;;;32.13;8.32;;;17.20;91.80;;;;;;5049437;28;20119;-61
2021/08/29 08:35:11;;;;;;;60.30;10.63;;;17.20;92.00;;;;;;5059860;28;20024;-61
2021/08/29 08:37:36;;;;;;;66.72;10.70;;;17.20;92.00;;;;;;5070241;28;20142;-63
2021/08/29 08:40:03;;;;;;;44.80;8.30;;;17.30;92.00;;;;;;5056641;28;20122;-61
2021/08/29 08:42:28;;;;;;;41.92;8.40;;;17.30;91.80;;;;;;5047884;28;20044;-62
2021/08/29 08:44:54;;;;;;;45.08;7.03;;;17.30;91.80;;;;;;5027457;28;20032;-63
2021/08/29 08:47:20;;;;;;;55.63;8.45;;;17.30;91.80;;;;;;5071215;28;20040;-61
2021/08/29 08:49:46;;;;;;;50.97;8.35;;;17.30;91.70;;;;;;5018928;28;20075;-61
2021/08/29 08:52:19;;;;;;;59.33;8.32;;;17.30;91.80;;;;;;5029538;28;20072;-61
2021/08/29 08:54:46;;;;;;;72.03;9.27;;;17.40;91.70;;;;;;5012166;28;20025;-61
2021/08/29 08:57:17;;;;;;;58.38;10.18;;;17.40;91.70;;;;;;5025004;28;20022;-61
2021/08/29 08:59:47;;;;;;;55.90;8.13;;;17.40;91.80;;;;;;5068667;28;20497;-61
2021/08/29 09:02:13;;;;;;;58.92;8.43;;;17.40;91.50;;;;;;5031222;28;20502;-61
2021/08/29 09:04:39;;;;;;;93.82;11.00;;;17.40;91.60;;;;;;5012418;28;20127;-61
2021/08/29 09:07:05;;;;;;;63.17;10.15;;;17.50;91.60;;;;;;5043513;28;20094;-62
2021/08/29 09:09:32;;;;;;;70.32;9.30;;;17.50;91.70;;;;;;5028854;28;20556;-61
2021/08/29 09:11:57;;;;;;;84.57;11.75;;;17.50;91.80;;;;;;5041227;28;20085;-61
2021/08/29 09:14:40;;;;;;;91.68;12.10;;;17.60;91.80;;;;;;5048770;28;20140;-61
2021/08/29 09:17:25;;;;;;;78.30;11.35;;;17.50;91.70;;;;;;5048377;28;20072;-61
2021/08/29 09:19:51;;;;;;;80.20;11.13;;;17.60;91.70;;;;;;5061688;28;20045;-61
2021/08/29 09:22:26;;;;;;;95.00;11.20;;;17.60;91.70;;;;;;5065921;28;20040;-61
2021/08/29 09:24:52;;;;;;;86.95;10.18;;;17.60;91.80;;;;;;5033817;28;20040;-61
2021/08/29 09:27:23;;;;;;;74.75;9.65;;;17.70;91.70;;;;;;5064418;28;20388;-60
2021/08/29 09:29:50;;;;;;;98.70;10.93;;;17.70;91.70;;;;;;5041514;28;20048;-61
2021/08/29 09:32:20;;;;;;;91.88;11.95;;;17.70;91.70;;;;;;5051387;28;20054;-60
2021/08/29 09:34:59;;;;;;;81.57;12.52;;;17.70;91.80;;;;;;5047562;28;20058;-61
2021/08/29 09:37:24;;;;;;;104.03;12.75;;;17.70;91.70;;;;;;5029959;28;20025;-61
2021/08/29 09:39:50;;;;;;;115.85;13.68;;;17.80;91.70;;;;;;5030969;28;20029;-61
2021/08/29 09:42:15;;;;;;;117.22;16.05;;;17.80;91.60;;;;;;5049446;28;20062;-61
2021/08/29 09:44:41;;;;;;;86.00;12.57;;;17.80;91.70;;;;;;5042665;28;20037;-61
2021/08/29 09:47:09;;;;;;;98.70;13.02;;;17.80;91.80;;;;;;5042456;28;20488;-61
2021/08/29 09:49:36;;;;;;;107.75;12.80;;;17.80;91.60;;;;;;5042172;28;20029;-61
2021/08/29 09:52:06;;;;;;;84.57;11.45;;;17.80;91.60;;;;;;5032683;28;20029;-61
2021/08/29 09:54:36;;;;;;;96.32;11.88;;;17.80;91.50;;;;;;5025901;28;20116;-61
2021/08/29 09:57:05;;;;;;;92.97;11.50;;;17.90;91.40;;;;;;5047369;28;20023;-61
2021/08/29 09:59:50;;;;;;;97.90;12.30;;;17.90;91.40;;;;;;5033825;28;20047;-61
2021/08/29 10:02:26;;;;;;;118.70;13.05;;;17.90;91.30;;;;;;5026013;28;20405;-61
2021/08/29 10:05:11;;;;;;;106.10;13.77;;;18.00;91.30;;;;;;5046758;28;20580;-61
2021/08/29 10:07:36;;;;;;;90.20;11.00;;;18.00;91.20;;;;;;5060166;28;20893;-61
2021/08/29 10:10:26;;;;;;;86.10;11.50;;;18.10;91.10;;;;;;5028903;28;20114;-62
2021/08/29 10:12:52;;;;;;;68.57;9.98;;;18.10;91.00;;;;;;5041852;28;20111;-61
2021/08/29 10:15:18;;;;;;;81.45;10.95;;;18.10;90.80;;;;;;5024248;28;20111;-61
2021/08/29 10:17:44;;;;;;;99.00;10.98;;;18.20;90.70;;;;;;5032960;28;20059;-61
2021/08/29 10:20:12;;;;;;;79.22;10.93;;;18.20;90.70;;;;;;5027347;28;20569;-61
2021/08/29 10:22:38;;;;;;;84.47;10.48;;;18.20;90.70;;;;;;5063979;28;20107;-61
2021/08/29 10:25:04;;;;;;;107.15;10.38;;;18.20;90.60;;;;;;5014832;28;20051;-61
2021/08/29 10:27:30;;;;;;;155.73;18.05;;;18.30;90.50;;;;;;5039342;28;20044;-61
2021/08/29 10:29:56;;;;;;;117.28;12.35;;;18.30;90.50;;;;;;5034848;28;20029;-61
2021/08/29 10:32:25;;;;;;;109.90;11.45;;;18.30;90.40;;;;;;5031698;28;20213;-61
2021/08/29 10:34:51;;;;;;;126.07;11.52;;;18.30;90.40;;;;;;5043094;28;20159;-61
2021/08/29 10:37:16;;;;;;;89.10;10.70;;;18.30;90.30;;;;;;5043420;28;20104;-62
2021/08/29 10:39:42;;;;;;;71.65;9.35;;;18.30;90.30;;;;;;5022013;28;20033;-61
2021/08/29 10:42:08;;;;;;;68.65;9.73;;;18.40;90.30;;;;;;5010592;28;20025;-61
2021/08/29 10:44:33;;;;;;;82.50;10.82;;;18.40;90.20;;;;;;5029693;28;20107;-61
2021/08/29 10:46:59;;;;;;;64.55;8.45;;;18.40;90.10;;;;;;5043252;28;20146;-61
2021/08/29 10:49:24;;;;;;;159.95;15.88;;;18.50;90.00;;;;;;5024401;28;20086;-61
2021/08/29 10:51:50;;;;;;;56.90;8.23;;;18.50;89.80;;;;;;5013164;28;20151;-61
2021/08/29 10:54:16;;;;;;;105.40;10.15;;;18.50;89.40;;;;;;5042901;28;20082;-61
2021/08/29 10:56:41;;;;;;;88.75;9.60;;;18.50;89.30;;;;;;5030069;28;20020;-61
2021/08/29 10:59:07;;;;;;;127.53;13.65;;;18.60;89.20;;;;;;5042988;28;20036;-61
2021/08/29 11:01:36;;;;;;;73.15;9.27;;;18.60;89.00;;;;;;5059898;28;20387;-61
2021/08/29 11:04:20;;;;;;;73.00;8.45;;;18.70;88.90;;;;;;5042812;28;20679;-61
2021/08/29 11:06:53;;;;;;;91.50;12.30;;;18.70;88.70;;;;;;5061440;28;20153;-61
2021/08/29 11:12:26;;;;;;;93.13;8.27;;;18.80;88.70;;;;;;5056525;28;20059;-61
2021/08/29 11:14:53;;;;;;;87.57;9.25;;;18.80;88.50;;;;;;5049151;28;20140;-62
2021/08/29 11:17:27;;;;;;;105.05;9.90;;;18.80;88.20;;;;;;5047584;28;20134;-61
2021/08/29 11:20:02;;;;;;;121.63;11.50;;;18.90;88.30;;;;;;5025201;28;20067;-61
2021/08/29 11:22:27;;;;;;;79.80;9.60;;;19.00;87.90;;;;;;5066048;28;20040;-61
2021/08/29 11:25:01;;;;;;;132.90;12.77;;;19.00;87.70;;;;;;5064773;28;20029;-61
2021/08/29 11:27:36;;;;;;;120.78;10.40;;;19.10;87.70;;;;;;5043269;28;20082;-62
2021/08/29 11:30:05;;;;;;;126.88;15.00;;;19.20;88.10;;;;;;5039380;28;20392;-61
2021/08/29 11:32:44;;;;;;;84.22;9.65;;;19.20;87.10;;;;;;5055587;28;20515;-59
2021/08/29 11:35:14;;;;;;;101.68;11.57;;;19.30;86.60;;;;;;5033065;28;20035;-60
2021/08/29 11:37:40;;;;;;;127.07;12.95;;;19.30;86.30;;;;;;5056743;28;20036;-60
2021/08/29 11:40:07;;;;;;;88.22;9.93;;;19.30;86.20;;;;;;5013698;28;20357;-60
2021/08/29 11:42:34;;;;;;;73.95;10.02;;;19.40;86.20;;;;;;5044254;28;20095;-59
2021/08/29 11:45:00;;;;;;;119.07;10.25;;;19.40;85.60;;;;;;5044158;28;20056;-60
2021/08/29 11:47:35;;;;;;;87.82;9.88;;;19.40;85.20;;;;;;5022074;28;20073;-60
2021/08/29 11:50:02;;;;;;;94.07;10.60;;;19.50;84.90;;;;;;5025221;28;20082;-60
2021/08/29 11:52:32;;;;;;;69.38;7.43;;;19.50;84.50;;;;;;5061793;28;20036;-61
2021/08/29 11:55:06;;;;;;;94.60;10.45;;;19.50;84.20;;;;;;5042231;28;20119;-60
2021/08/29 11:57:31;;;;;;;73.63;9.27;;;19.50;84.00;;;;;;5036750;28;20032;-60
2021/08/29 12:00:07;;;;;;;99.80;10.10;;;19.60;84.10;;;;;;5041045;28;20048;-60
2021/08/29 12:02:41;;;;;;;93.20;9.65;;;19.60;84.40;;;;;;5007111;28;20039;-60
2021/08/29 12:05:09;;;;;;;137.30;12.23;;;19.60;83.60;;;;;;5036983;28;20680;-59
2021/08/29 12:07:36;;;;;;;125.57;13.82;;;19.70;84.30;;;;;;5026622;28;20087;-60
2021/08/29 12:10:02;;;;;;;73.60;9.23;;;19.70;83.70;;;;;;5022890;28;20025;-60
2021/08/29 12:12:27;;;;;;;258.80;25.45;;;19.80;83.40;;;;;;5032630;28;20091;-60
2021/08/29 12:14:53;;;;;;;94.47;11.48;;;19.80;82.80;;;;;;5018629;28;20024;-60
2021/08/29 12:17:19;;;;;;;98.88;10.82;;;19.80;82.60;;;;;;5035310;28;20896;-60
2021/08/29 12:19:44;;;;;;;111.97;10.55;;;19.90;82.80;;;;;;5030394;28;20644;-60
2021/08/29 12:22:11;;;;;;;102.63;8.60;;;19.90;82.20;;;;;;5038064;28;20032;-60
2021/08/29 12:24:38;;;;;;;92.07;9.25;;;20.00;82.20;;;;;;5059501;28;20043;-60
2021/08/29 12:27:14;;;;;;;96.28;10.93;;;20.00;81.80;;;;;;5038328;28;20029;-60
2021/08/29 12:29:44;;;;;;;82.35;11.05;;;19.90;82.10;;;;;;5022837;28;20038;-60
2021/08/29 12:32:11;;;;;;;100.18;12.32;;;20.00;82.10;;;;;;5054862;28;20328;-60
2021/08/29 12:34:37;;;;;;;157.88;15.27;;;20.00;81.90;;;;;;5026789;28;20029;-60
2021/08/29 12:37:13;;;;;;;100.72;9.65;;;19.90;82.10;;;;;;5053110;28;20515;-60
2021/08/29 12:39:39;;;;;;;118.47;13.35;;;20.00;82.20;;;;;;5039352;28;20071;-60